Banksville, New York
Current Conditions -  °F | °C
As of 12:56 PM on Thursday 27 Nov 2014 (Local Time) from KHPN Reporting Station
Light Snow Light Snow  
Wind Chill: -2°   Ceiling: 1100
Heat Index:   Visibility: 2.5mi
Dew Point: -1°   Wind: 8mph
Humidity: 82%   Direction: 320°NW
Pressure: 29.96"   Gusts: NA
Location:  41.191°N, 73.6333°W
Report Text: KHPN 271756Z 32007KT 2 1/2SM -SN BKN011 BKN065 02/M01 A2996 RMK AO2 SLP152 P0000 60000 T00171011 10017 20006 56005
Loading
Personal Weather Stations






























Interactive Weather Map New forecast layout! Learn more

10-Day Weather Forecast

Advertisements
Track Severe Weather on mobile